Have a Safe July 4th! 

Flight Track Log - Related Links

Times and Time Zones

All times are in EDT time to prevent confusion due to time zone crossing. See the N1926A flight status page for this flight to view local times or setup timezone preferences in your user account.

Time Position Orientation Groundspeed Altitude Reporting Facility
EDT Latitude Longitude Course Direction KTS MPH feet Rate Location/Type
Wed 08:57:04 AM 37.0906 -88.6303 60° Northeast 209 241 5,500  Level Memphis Center
Wed 08:58:04 AM 37.1169 -88.5725 60° Northeast 198 228 7,600 2,050 Climbing Memphis Center
Wed 08:59:04 AM 37.1494 -88.5144 55° Northeast 193 222 9,600 2,050 Climbing Memphis Center
Wed 09:00:04 AM 37.1778 -88.4564 58° Northeast 193 222 11,700 2,000 Climbing Memphis Center
Wed 09:01:04 AM 37.2039 -88.3908 63° Northeast 193 222 13,600 1,850 Climbing Memphis Center
Wed 09:02:04 AM 37.2278 -88.3303 64° Northeast 193 222 15,400 1,750 Climbing Memphis Center
Wed 09:03:04 AM 37.2517 -88.2644 65° Northeast 199 229 17,100 1,500 Climbing Memphis Center
Wed 09:04:04 AM 37.2819 -88.1986 60° Northeast 199 229 18,400 1,400 Climbing Memphis Center
Wed 09:05:04 AM 37.3097 -88.1325 62° Northeast 204 235 19,900 1,450 Climbing Memphis Center
Wed 09:06:04 AM 37.3397 -88.0639 61° Northeast 204 235 21,300 1,400 Climbing Memphis Center
Wed 09:07:04 AM 37.3678 -87.9978 62° Northeast 204 235 22,700 1,020 Climbing Memphis Center
Wed 09:07:44 AM 37.3897 -87.9386 65° Northeast 219 252 23,000 176 Climbing Indianapolis Center
Wed 09:08:46 AM 37.4250 -87.8533 62° Northeast 264 304 23,000 290 Level Indianapolis Center
Wed 09:09:48 AM 37.4644 -87.7678 60° Northeast 279 321 23,600 532 Climbing Indianapolis Center
Wed 09:10:50 AM 37.5008 -87.6867 60° Northeast 268 308 24,100 439 Climbing Indianapolis Center
Wed 09:11:51 AM 37.5372 -87.5997 62° Northeast 274 315 24,500 439 Climbing Indianapolis Center
Wed 09:12:53 AM 37.5736 -87.5156 61° Northeast 271 312 25,000 242 Climbing Indianapolis Center
Wed 09:13:55 AM 37.6089 -87.4281 63° Northeast 276 318 25,000  Level Indianapolis Center
Wed 09:14:57 AM 37.6453 -87.3372 63° Northeast 284 327 25,000  Level Indianapolis Center
Wed 09:15:59 AM 37.6839 -87.2469 62° Northeast 288 331 25,000  Level Indianapolis Center
Wed 09:17:01 AM 37.7283 -87.1467 61° Northeast 290 334 25,000  Level Indianapolis Center
Wed 09:18:03 AM 37.7661 -87.0561 62° Northeast 291 335 25,000  Level Indianapolis Center
Wed 09:19:05 AM 37.8031 -86.9681 62° Northeast 287 330 25,000  Level Indianapolis Center
Wed 09:20:07 AM 37.8400 -86.8781 63° Northeast 289 333 25,000  Level Indianapolis Center
Wed 09:21:09 AM 37.8761 -86.7883 63° Northeast 287 330 25,000  Level Indianapolis Center
Wed 09:22:11 AM 37.9211 -86.6806 62° Northeast 288 331 25,000  Level Indianapolis Center
Wed 09:23:13 AM 37.9586 -86.5889 63° Northeast 293 337 25,000  Level Indianapolis Center
Wed 09:24:15 AM 37.9972 -86.4975 62° Northeast 294 338 25,000  Level Indianapolis Center
Wed 09:25:17 AM 38.0358 -86.4056 62° Northeast 296 341 25,000  Level Indianapolis Center
Wed 09:26:19 AM 38.0731 -86.3133 63° Northeast 295 339 25,000  Level Indianapolis Center
Wed 09:27:21 AM 38.1103 -86.2200 63° Northeast 298 343 25,000  Level Indianapolis Center
Wed 09:28:23 AM 38.1558 -86.1103 62° Northeast 293 337 25,000  Level Indianapolis Center
Wed 09:29:25 AM 38.1925 -86.0172 63° Northeast 296 341 25,000  Level Indianapolis Center
Wed 09:30:27 AM 38.2300 -85.9261 62° Northeast 292 336 25,000  Level Indianapolis Center
Wed 09:31:29 AM 38.2689 -85.8347 62° Northeast 294 338 25,000  Level Indianapolis Center
Wed 09:32:31 AM 38.3058 -85.7428 63° Northeast 292 336 25,000  Level Indianapolis Center
Wed 09:33:33 AM 38.3439 -85.6503 62° Northeast 293 337 25,000  Level Indianapolis Center
Wed 09:34:35 AM 38.3803 -85.5569 64° Northeast 294 338 25,000  Level Indianapolis Center
Wed 09:35:37 AM 38.4219 -85.4431 65° Northeast 294 338 25,000  Level Indianapolis Center
Wed 09:36:39 AM 38.4589 -85.3481 64° Northeast 298 343 25,000  Level Indianapolis Center
Wed 09:37:41 AM 38.4939 -85.2517 65° Northeast 298 343 25,000  Level Indianapolis Center
Wed 09:38:43 AM 38.4969 -85.1439 88° East 301 346 25,000  Level Indianapolis Center
Wed 09:39:45 AM 38.4989 -85.0375 89° East 300 345 25,000  Level Indianapolis Center
Wed 09:40:47 AM 38.5097 -84.9117 84° East 304 350 25,000  Level Indianapolis Center
Wed 09:41:49 AM 38.5197 -84.8047 83° East 304 350 25,000  Level Indianapolis Center
Wed 09:42:51 AM 38.5286 -84.6997 84° East 301 346 25,000  Level Indianapolis Center
Wed 09:43:53 AM 38.5383 -84.5986 83° East 293 337 25,000  Level Indianapolis Center
Wed 09:44:55 AM 38.5481 -84.4967 83° East 290 334 25,000  Level Indianapolis Center
Wed 09:45:57 AM 38.5564 -84.3942 84° East 288 331 25,000  Level Indianapolis Center
Wed 09:47:00 AM 38.5625 -84.2781 86° East 282 325 25,000  Level Indianapolis Center
Wed 09:48:02 AM 38.5697 -84.1772 85° East 283 326 25,000  Level Indianapolis Center
Wed 09:49:04 AM 38.5756 -84.0761 86° East 285 328 25,000  Level Indianapolis Center
Wed 09:50:06 AM 38.5811 -83.9758 86° East 282 325 25,000  Level Indianapolis Center
Wed 09:51:08 AM 38.5881 -83.8772 85° East 281 323 25,000  Level Indianapolis Center
Wed 09:52:10 AM 38.5950 -83.7772 85° East 280 322 25,000  Level Indianapolis Center
Wed 09:53:12 AM 38.6031 -83.6592 85° East 284 327 25,000  Level Indianapolis Center
Wed 09:54:14 AM 38.6094 -83.5589 85° East 283 326 25,000  Level Indianapolis Center
Wed 09:55:16 AM 38.6150 -83.4581 86° East 283 326 25,000  Level Indianapolis Center
Wed 09:56:18 AM 38.6211 -83.3567 86° East 285 328 25,000  Level Indianapolis Center
Wed 09:57:20 AM 38.6272 -83.2544 86° East 287 330 25,000  Level Indianapolis Center
Wed 09:58:23 AM 38.6358 -83.1372 85° East 284 327 25,000  Level Indianapolis Center
Wed 09:59:25 AM 38.6414 -83.0375 86° East 281 323 25,000  Level Indianapolis Center
Wed 10:00:27 AM 38.6494 -82.9444 84° East 283 326 25,000  Level Indianapolis Center
Wed 10:01:29 AM 38.6956 -82.8661 53° Northeast 282 325 25,000  Level Indianapolis Center
Wed 10:02:31 AM 38.7500 -82.8006 43° Northeast 272 313 25,000  Level Indianapolis Center
Wed 10:03:33 AM 38.8147 -82.7178 45° Northeast 272 313 25,000  Level Indianapolis Center
Wed 10:04:35 AM 38.8683 -82.6472 46° Northeast 274 315 25,000  Level Indianapolis Center
Wed 10:05:37 AM 38.9192 -82.5750 48° Northeast 274 315 25,000  Level Indianapolis Center
Wed 10:06:39 AM 38.9697 -82.5019 48° Northeast 274 315 25,000  Level Indianapolis Center
Wed 10:07:41 AM 39.0194 -82.4275 49° Northeast 273 314 25,000  Level Indianapolis Center
Wed 10:08:43 AM 39.0681 -82.3517 50° Northeast 272 313 25,000  Level Indianapolis Center
Wed 10:09:45 AM 39.1172 -82.2761 50° Northeast 274 315 25,000  Level Indianapolis Center
Wed 10:10:47 AM 39.1792 -82.1864 48° Northeast 277 319 25,000  Level Indianapolis Center
Wed 10:11:49 AM 39.2306 -82.1103 49° Northeast 280 322 25,000  Level Indianapolis Center
Wed 10:12:51 AM 39.2806 -82.0347 49° Northeast 276 318 25,000  Level Indianapolis Center
Wed 10:13:53 AM 39.3297 -81.9578 50° Northeast 276 318 25,000  Level Indianapolis Center
Wed 10:14:55 AM 39.3794 -81.8831 49° Northeast 275 316 25,000 -194 Level Indianapolis Center
Wed 10:15:57 AM 39.4289 -81.8047 51° Northeast 278 320 24,600 -480 Descending Indianapolis Center
Wed 10:17:00 AM 39.4828 -81.7228 50° Northeast 293 337 24,000 -1,152 Descending Indianapolis Center
Wed 10:18:02 AM 39.5483 -81.6264 49° Northeast 297 342 22,200 -1,984 Descending Indianapolis Center
Wed 10:19:04 AM 39.6072 -81.5336 50° Northeast 325 374 19,900 -1,887 Descending Indianapolis Center
Wed 10:20:06 AM 39.6681 -81.4492 47° Northeast 323 372 18,300 -1,597 Descending Indianapolis Center
Wed 10:21:08 AM 39.7208 -81.3717 48° Northeast 298 343 16,600 -1,935 Descending Indianapolis Center
Wed 10:22:10 AM 39.7731 -81.2903 50° Northeast 291 335 14,300 -2,952 Descending Indianapolis Center
Wed 10:23:12 AM 39.8464 -81.2261 34° Northeast 316 364 10,500 -3,242 Descending Indianapolis Center
Wed 10:24:14 AM 39.9022 -81.1533 45° Northeast 288 331 7,600 -2,468 Descending Indianapolis Center
Wed 10:25:16 AM 39.9519 -81.0550 57° Northeast 275 316 5,400 -1,258 Descending Indianapolis Center
Wed 10:26:18 AM 39.9908 -80.9858 54° Northeast 260 299 5,000 -194 Descending Indianapolis Center
Wed 10:27:20 AM 40.0247 -80.9311 51° Northeast 246 283 5,000 -97 Level Indianapolis Center
Wed 10:28:22 AM 40.0639 -80.8553 56° Northeast 231 266 4,800 -661 Descending Indianapolis Center
Wed 10:29:27 AM 40.0986 -80.7817 58° Northeast 223 257 3,600 -992 Descending Cleveland Center
Wed 10:30:29 AM 40.1189 -80.7117 69° East 214 246 2,700 -774 Descending Cleveland Center
Wed 10:31:31 AM 40.1733 -80.6731 28° Northeast 195 224 2,000 -435 Descending Cleveland Center
Wed 10:32:33 AM 40.2089 -80.6456 31° Northeast 169 194 1,800 -240 Descending Cleveland Center
Wed 10:33:36 AM 40.1856 -80.6383 167° South 160 184 1,500 -286 Descending Cleveland Center
Wed 10:35:00 AM 40.1667 -80.6333 180° South  Level FlightAware Approximate

Login

Don't have an account? Register now (free) for customized features, flight alerts, and more!